Pawhuska, Oklahoma
Current Conditions -  °F | °C
As of 11:53 AM on Friday 28 Nov 2014 (Local Time) from KBVO Reporting Station
Clear Clear  
Wind Chill: 59°   Ceiling: Unl
Heat Index: 59°   Visibility: 10mi
Dew Point: 33°   Wind: 16mph
Humidity: 38%   Direction: 200°SSW
Pressure: 30"   Gusts: 23mph
Location:  36.67°N, 96.34°W
Report Text: KBVO 281753Z AUTO 20014G20KT 10SM CLR 15/01 A3000 RMK AO2 SLP157 T01500006 10150 21028 58029
Loading
Personal Weather Stations






























Interactive Weather Map New forecast layout! Learn more

10-Day Weather Forecast

Advertisements
Track Severe Weather on mobile